Nss-1003 — UIUH — position and weather

sailwx.info

Track history (hours):
 
Tides and Currents Weather Stations Pressure Air Temp Water Temp Dewpoint Dewpoint Depression Visibility Wind Speed Wind Dir Waves Ship Positions

Nss-1003

Last reported at 2017-Oct-17 22:29 UTC. Time now 2017-Oct-17 22:33 UTC.
Position N 44°43' E 037°50'.

Length 18 m; draft 2.7 m.

Type: Tug. MMSI: 273318750.

Date/timePositionNaut miles runAvg speedWind from/ knotsBaromVisibWave heightAir tempDewpointWater temp
2017-Oct-17 22:29N 44°43' E 037°50'0 0.0
2017-Oct-17 21:59N 44°43' E 037°50'2 4.0
2017-Oct-17 21:26N 44°40' E 037°50'1 2.8
2017-Oct-17 20:56N 44°40' E 037°48'0 0.0
2017-Oct-17 20:29N 44°40' E 037°48'0 0.0
2017-Oct-17 19:59N 44°40' E 037°48'0 0.0
2017-Oct-17 19:29N 44°40' E 037°48'0 0.0
2017-Oct-17 18:59N 44°40' E 037°48'0 0.0
2017-Oct-17 18:29N 44°40' E 037°48'0 0.0
2017-Oct-17 17:59N 44°40' E 037°48'0 0.0
2017-Oct-17 17:26N 44°40' E 037°48'0 0.0
2017-Oct-17 16:59N 44°40' E 037°48'0 0.0
2017-Oct-17 16:29N 44°40' E 037°48'0 0.0
2017-Oct-17 15:59N 44°40' E 037°48'0 0.0
2017-Oct-17 15:29N 44°40' E 037°48'0 0.0
2017-Oct-17 14:53N 44°40' E 037°48'0 0.0
2017-Oct-17 14:29N 44°40' E 037°48'0 0.0
2017-Oct-17 13:59N 44°40' E 037°48'0 0.0
2017-Oct-17 13:29N 44°40' E 037°48'0 0.0
2017-Oct-17 12:59N 44°40' E 037°48'0 0.0
2017-Oct-17 12:29N 44°40' E 037°48'0 0.0
2017-Oct-17 11:59N 44°40' E 037°48'0 0.0
2017-Oct-17 11:29N 44°40' E 037°48'0 0.0
2017-Oct-17 10:59N 44°40' E 037°48'0 0.0
2017-Oct-17 10:29N 44°40' E 037°48'0 0.0
2017-Oct-17 09:59N 44°40' E 037°48'0 0.0
2017-Oct-17 09:26N 44°40' E 037°48'0 0.0
2017-Oct-17 08:56N 44°40' E 037°48'0 0.0
2017-Oct-17 08:29N 44°40' E 037°48'0 0.0
2017-Oct-17 07:59N 44°40' E 037°48'0 0.0
2017-Oct-17 07:29N 44°40' E 037°48'0 0.0
2017-Oct-17 06:59N 44°40' E 037°48'0 0.0
2017-Oct-17 06:26N 44°40' E 037°48'0 0.0
2017-Oct-17 05:59N 44°40' E 037°48'0 0.0
2017-Oct-17 05:29N 44°40' E 037°48'0 0.0
2017-Oct-17 04:59N 44°40' E 037°48'0 0.0
2017-Oct-17 04:29N 44°40' E 037°48'0 0.0
2017-Oct-17 03:59N 44°40' E 037°48'0 0.0
2017-Oct-17 03:14N 44°40' E 037°48'0 0.0
2017-Oct-17 02:59N 44°40' E 037°48'0 0.0
2017-Oct-17 02:29N 44°40' E 037°48'0 0.0
2017-Oct-17 01:59N 44°40' E 037°48'0 0.0
2017-Oct-17 01:29N 44°40' E 037°48'0 0.0
2017-Oct-17 00:59N 44°40' E 037°48'0 0.0
2017-Oct-17 00:29N 44°40' E 037°48'0 0.0
2017-Oct-16 23:59N 44°40' E 037°48'0 0.0
2017-Oct-16 23:29N 44°40' E 037°48'0 0.0
2017-Oct-16 22:59N 44°40' E 037°48'0 0.0
2017-Oct-16 22:29N 44°40' E 037°48'0 0.0
2017-Oct-16 21:59N 44°40' E 037°48'0 0.0
2017-Oct-16 21:29N 44°40' E 037°48'0 0.0
2017-Oct-16 20:59N 44°40' E 037°48'0 0.0
2017-Oct-16 20:29N 44°40' E 037°48'0 0.0
2017-Oct-16 19:59N 44°40' E 037°48'0 0.0
2017-Oct-16 19:29N 44°40' E 037°48'0 0.0
2017-Oct-16 18:59N 44°40' E 037°48'0 0.0
2017-Oct-16 18:08N 44°40' E 037°48'0 0.0
2017-Oct-16 17:59N 44°40' E 037°48'0 0.0
2017-Oct-16 17:20N 44°40' E 037°48'0 0.0
2017-Oct-16 16:59N 44°40' E 037°48'0 0.0
2017-Oct-16 16:29N 44°40' E 037°48'0 0.0
2017-Oct-16 15:59N 44°40' E 037°48'0 0.0
2017-Oct-16 15:29N 44°40' E 037°48'0 0.0
2017-Oct-16 14:59N 44°40' E 037°48'0 0.0
2017-Oct-16 14:29N 44°40' E 037°48'0 0.0
2017-Oct-16 13:29N 44°40' E 037°48'0 0.0
2017-Oct-16 12:59N 44°40' E 037°48'0 0.0
2017-Oct-16 12:29N 44°40' E 037°48'0 0.0
2017-Oct-16 11:59N 44°40' E 037°48'0 0.0
2017-Oct-16 11:29N 44°40' E 037°48'0 0.0
2017-Oct-16 10:59N 44°40' E 037°48'0 0.0
2017-Oct-16 10:29N 44°40' E 037°48'0 0.0
2017-Oct-16 09:59N 44°40' E 037°48'0 0.0
2017-Oct-16 09:29N 44°40' E 037°48'0 0.8
2017-Oct-16 08:56N 44°40' E 037°48'3 5.5
2017-Oct-16 08:26N 44°42' E 037°50'0 0.1
2017-Oct-16 07:59N 44°42' E 037°50'0 0.2
2017-Oct-16 07:29N 44°42' E 037°50'3 5.2
2017-Oct-16 06:56N 44°40' E 037°49'1 2.5
2017-Oct-16 06:29N 44°40' E 037°48'0 0.0
2017-Oct-16 05:59N 44°40' E 037°48'0 0.0
2017-Oct-16 05:29N 44°40' E 037°48'0 0.0
2017-Oct-16 04:59N 44°40' E 037°48'0 0.0
2017-Oct-16 04:29N 44°40' E 037°48'0 0.0
2017-Oct-16 03:59N 44°40' E 037°48'0 0.0
2017-Oct-16 03:29N 44°40' E 037°48'0 0.0
2017-Oct-16 02:59N 44°40' E 037°48'0 0.0
2017-Oct-16 02:29N 44°40' E 037°48'0 0.0
2017-Oct-16 01:59N 44°40' E 037°48'0 0.0
2017-Oct-16 01:29N 44°40' E 037°48'0 0.0
2017-Oct-16 00:59N 44°40' E 037°48'0 0.0
2017-Oct-16 00:29N 44°40' E 037°48'0 0.0
2017-Oct-15 23:56N 44°40' E 037°48'0 0.0
2017-Oct-15 23:29N 44°40' E 037°48'0 0.0
2017-Oct-15 22:59N 44°40' E 037°48'0 0.0
2017-Oct-15 22:29N 44°40' E 037°48'0 0.0
2017-Oct-15 21:59N 44°40' E 037°48'0 0.0
2017-Oct-15 21:29N 44°40' E 037°48'0 0.0
2017-Oct-15 20:59N 44°40' E 037°48'0 0.0
2017-Oct-15 20:29N 44°40' E 037°48'0 0.0
2017-Oct-15 19:59N 44°40' E 037°48'0 0.0
2017-Oct-15 19:29N 44°40' E 037°48'0 0.0
2017-Oct-15 18:59N 44°40' E 037°48'0 0.0
2017-Oct-15 18:29N 44°40' E 037°48'0 0.0
2017-Oct-15 17:59N 44°40' E 037°48'0 0.0
2017-Oct-15 17:29N 44°40' E 037°48'0 0.0
2017-Oct-15 16:56N 44°40' E 037°48'0 0.0
2017-Oct-15 16:29N 44°40' E 037°48'0 0.0
2017-Oct-15 15:59N 44°40' E 037°48'0 0.0
2017-Oct-15 15:29N 44°40' E 037°48'0 0.0
2017-Oct-15 14:59N 44°40' E 037°48'0 0.0
2017-Oct-15 13:59N 44°40' E 037°48'0 0.9
2017-Oct-15 13:29N 44°40' E 037°49'3 5.9
2017-Oct-15 12:59N 44°43' E 037°50'0 0.0
2017-Oct-15 12:26N 44°43' E 037°50'1 1.5
2017-Oct-15 11:59N 44°42' E 037°50'2 4.4
2017-Oct-15 11:29N 44°40' E 037°48'0 0.0
2017-Oct-15 11:00N 44°40' E 037°48'0 0.0
2017-Oct-15 10:30N 44°40' E 037°48'0 0.0
2017-Oct-15 10:00N 44°40' E 037°48'0 0.0
2017-Oct-15 09:30N 44°40' E 037°48'0 0.0
2017-Oct-15 09:00N 44°40' E 037°48'0 0.0
2017-Oct-15 08:30N 44°40' E 037°48'0 0.0
2017-Oct-15 08:00N 44°40' E 037°48'0 0.0
2017-Oct-15 07:30N 44°40' E 037°48'0 0.0
2017-Oct-15 07:00N 44°40' E 037°48'0 0.0
2017-Oct-15 06:30N 44°40' E 037°48'0 0.0
2017-Oct-15 06:00N 44°40' E 037°48'0 0.0
2017-Oct-15 05:30N 44°40' E 037°48'0 0.0
2017-Oct-15 05:00N 44°40' E 037°48'0 0.0
2017-Oct-15 04:30N 44°40' E 037°48'0 0.0
2017-Oct-15 04:00N 44°40' E 037°48'0 0.0
2017-Oct-15 03:30N 44°40' E 037°48'0 0.0
2017-Oct-15 03:00N 44°40' E 037°48'0 0.0
2017-Oct-15 02:30N 44°40' E 037°48'0 0.0
2017-Oct-15 02:00N 44°40' E 037°48'0 0.0
2017-Oct-15 01:30N 44°40' E 037°48'0 0.0
2017-Oct-15 01:00N 44°40' E 037°48'0 0.0
2017-Oct-15 00:30N 44°40' E 037°48'0 0.0
2017-Oct-15 00:00N 44°40' E 037°48'0 0.0
2017-Oct-14 23:30N 44°40' E 037°48'0 0.0
2017-Oct-14 23:00N 44°40' E 037°48'0 0.0
2017-Oct-14 22:27N 44°40' E 037°48'0 0.0
2017-Oct-14 22:00N 44°40' E 037°48'0 0.0
2017-Oct-14 21:30N 44°40' E 037°48'0 0.0
2017-Oct-14 21:00N 44°40' E 037°48'0 0.0
2017-Oct-14 20:30N 44°40' E 037°48'0 0.0
2017-Oct-14 20:00N 44°40' E 037°48'0 0.0
2017-Oct-14 19:30N 44°40' E 037°48'0 0.0
2017-Oct-14 19:00N 44°40' E 037°48'0 0.0
2017-Oct-14 18:30N 44°40' E 037°48'0 0.0
2017-Oct-14 18:00N 44°40' E 037°48'0 0.0
2017-Oct-14 17:30N 44°40' E 037°48'0 0.0
2017-Oct-14 17:00N 44°40' E 037°48'0 0.0
2017-Oct-14 16:30N 44°40' E 037°48'0 0.0
2017-Oct-14 16:00N 44°40' E 037°48'0 0.0
2017-Oct-14 15:30N 44°40' E 037°48'0 0.0
2017-Oct-14 15:00N 44°40' E 037°48'0 0.0
2017-Oct-14 14:30N 44°40' E 037°48'0 0.0
2017-Oct-14 14:00N 44°40' E 037°48'0 0.0
2017-Oct-14 13:30N 44°40' E 037°48'0 0.0
2017-Oct-14 13:00N 44°40' E 037°48'0 0.0
2017-Oct-14 12:30N 44°40' E 037°48'0 0.0
2017-Oct-14 12:00N 44°40' E 037°48'0 0.0
2017-Oct-14 11:30N 44°40' E 037°48'0 0.0
2017-Oct-14 11:00N 44°40' E 037°48'0 0.0
2017-Oct-14 10:30N 44°40' E 037°48'0 0.0
2017-Oct-14 10:00N 44°40' E 037°48'0 0.0
2017-Oct-14 09:27N 44°40' E 037°48'0 0.0
2017-Oct-14 09:00N 44°40' E 037°48'0 0.0
2017-Oct-14 08:30N 44°40' E 037°48'0 0.0
2017-Oct-14 07:59N 44°40' E 037°48'0 0.0
2017-Oct-14 07:26N 44°40' E 037°48'0 0.0
2017-Oct-14 06:59N 44°40' E 037°48'0 0.0
2017-Oct-14 06:29N 44°40' E 037°48'0 0.0
2017-Oct-14 05:59N 44°40' E 037°48'0 0.0
2017-Oct-14 05:29N 44°40' E 037°48'0 0.0
2017-Oct-14 04:59N 44°40' E 037°48'0 0.0
2017-Oct-14 04:26N 44°40' E 037°48'0 0.0
2017-Oct-14 03:59N 44°40' E 037°48'0 0.0
2017-Oct-14 03:29N 44°40' E 037°48'0 0.0
2017-Oct-14 02:59N 44°40' E 037°48'0 0.0
2017-Oct-14 02:29N 44°40' E 037°48'0 0.0
2017-Oct-14 01:59N 44°40' E 037°48'0 0.0
2017-Oct-14 01:29N 44°40' E 037°48'0 0.0
2017-Oct-14 00:59N 44°40' E 037°48'0 0.0
2017-Oct-14 00:29N 44°40' E 037°48'0 0.0
2017-Oct-13 23:59N 44°40' E 037°48'0 0.0
2017-Oct-13 23:29N 44°40' E 037°48'0 0.0
2017-Oct-13 22:53N 44°40' E 037°48'0 0.0
2017-Oct-13 22:26N 44°40' E 037°48'0 0.0
2017-Oct-13 21:59N 44°40' E 037°48'1 2.1
2017-Oct-13 21:29N 44°40' E 037°50'2 4.3
2017-Oct-13 20:59N 44°42' E 037°50'0 0.2
2017-Oct-13 20:26N 44°42' E 037°50'1 2.6
2017-Oct-13 19:59N 44°41' E 037°50'2 3.7
2017-Oct-13 19:29N 44°40' E 037°48'0 0.0
2017-Oct-13 18:59N 44°40' E 037°48'0 0.0
2017-Oct-13 18:29N 44°40' E 037°48'0 0.0
2017-Oct-13 17:59N 44°40' E 037°48'0 0.0
2017-Oct-13 17:29N 44°40' E 037°48'0 0.0
2017-Oct-13 16:29N 44°40' E 037°48'0 0.0
2017-Oct-13 15:59N 44°40' E 037°48'0 0.0
2017-Oct-13 15:29N 44°40' E 037°48'0 0.0
2017-Oct-13 14:59N 44°40' E 037°48'0 0.0
2017-Oct-13 14:29N 44°40' E 037°48'0 0.0
2017-Oct-13 13:59N 44°40' E 037°48'0 0.0
2017-Oct-13 13:29N 44°40' E 037°48'0 0.0
2017-Oct-13 12:59N 44°40' E 037°48'0 0.0
2017-Oct-13 12:29N 44°40' E 037°48'0 0.0
2017-Oct-13 11:59N 44°40' E 037°48'0 0.0
2017-Oct-13 11:29N 44°40' E 037°48'0 0.0
2017-Oct-13 10:59N 44°40' E 037°48'0 0.1
2017-Oct-13 10:29N 44°40' E 037°48'0 0.0
2017-Oct-13 09:59N 44°40' E 037°48'0 0.2
2017-Oct-13 09:29N 44°40' E 037°48'2 3.7
2017-Oct-13 08:59N 44°42' E 037°48'0 0.0
2017-Oct-13 08:29N 44°42' E 037°48'0 0.0
2017-Oct-13 07:59N 44°42' E 037°48'0 0.0
2017-Oct-13 07:29N 44°42' E 037°48'0 0.0
2017-Oct-13 06:59N 44°42' E 037°48'0 0.0
2017-Oct-13 06:29N 44°42' E 037°48'0 0.0
2017-Oct-13 05:59N 44°42' E 037°48'1 1.7
2017-Oct-13 05:29N 44°41' E 037°49'1 2.2
2017-Oct-13 04:59N 44°40' E 037°48'0 0.0
2017-Oct-13 04:29N 44°40' E 037°48'0 0.0
2017-Oct-13 03:59N 44°40' E 037°48'0 0.0
2017-Oct-13 03:29N 44°40' E 037°48'0 0.0
2017-Oct-13 02:56N 44°40' E 037°48'0 0.0
2017-Oct-13 02:29N 44°40' E 037°48'0 0.0
2017-Oct-13 01:59N 44°40' E 037°48'0 0.0
2017-Oct-13 01:29N 44°40' E 037°48'0 0.0
2017-Oct-13 00:59N 44°40' E 037°48'0 0.0
2017-Oct-13 00:26N 44°40' E 037°48'0 0.0
2017-Oct-12 23:59N 44°40' E 037°48'0 0.0
2017-Oct-12 23:29N 44°40' E 037°48'0 0.0
2017-Oct-12 22:59N 44°40' E 037°48'0 0.0
2017-Oct-12 22:29N 44°40' E 037°48'0 0.0
2017-Oct-12 21:59N 44°40' E 037°48'0 0.0
2017-Oct-12 21:29N 44°40' E 037°48'0 0.0
2017-Oct-12 20:56N 44°40' E 037°48'0 0.0
2017-Oct-12 20:29N 44°40' E 037°48'0 0.0
2017-Oct-12 19:59N 44°40' E 037°48'0 0.0
2017-Oct-12 19:29N 44°40' E 037°48'0 0.0
2017-Oct-12 18:59N 44°40' E 037°48'1 1.7
2017-Oct-12 18:29N 44°40' E 037°49'3 5.1
2017-Oct-12 17:59N 44°42' E 037°48'0 0.0
2017-Oct-12 17:29N 44°42' E 037°48'0 0.0
2017-Oct-12 16:59N 44°42' E 037°48'0 0.0
2017-Oct-12 16:29N 44°42' E 037°48'3 5.2
2017-Oct-12 15:59N 44°40' E 037°49'1 1.9
2017-Oct-12 15:29N 44°40' E 037°48'0 0.9
2017-Oct-12 14:59N 44°40' E 037°48'2 3.6
2017-Oct-12 14:26N 44°42' E 037°48'1 2.6
2017-Oct-12 13:56N 44°42' E 037°50'0 0.3
2017-Oct-12 13:29N 44°42' E 037°50'0 0.1
2017-Oct-12 12:59N 44°42' E 037°50'0 0.7
2017-Oct-12 12:29N 44°42' E 037°50'2 3.3
2017-Oct-12 11:53N 44°40' E 037°48'0 0.0
2017-Oct-12 11:29N 44°40' E 037°48'0 0.0
2017-Oct-12 10:59N 44°40' E 037°48'0 0.0
2017-Oct-12 10:29N 44°40' E 037°48'0 0.0
2017-Oct-12 09:59N 44°40' E 037°48'0 0.0
2017-Oct-12 09:29N 44°40' E 037°48'0 0.0
2017-Oct-12 08:59N 44°40' E 037°48'0 0.0
2017-Oct-12 08:29N 44°40' E 037°48'3 5.2
2017-Oct-12 07:56N 44°43' E 037°50'0 0.1
2017-Oct-12 07:26N 44°43' E 037°50'2 3.8
2017-Oct-12 06:59N 44°41' E 037°50'2 3.2
2017-Oct-12 06:29N 44°40' E 037°48'0 0.0
2017-Oct-12 05:59N 44°40' E 037°48'0 0.0
2017-Oct-12 05:29N 44°40' E 037°48'0 0.0
2017-Oct-12 04:59N 44°40' E 037°48'0 0.0
2017-Oct-12 04:29N 44°40' E 037°48'0 0.0
2017-Oct-12 03:59N 44°40' E 037°48'0 0.0
2017-Oct-12 03:29N 44°40' E 037°48'0 0.0
2017-Oct-12 02:56N 44°40' E 037°48'0 0.0
2017-Oct-12 02:29N 44°40' E 037°48'0 0.0
2017-Oct-12 01:59N 44°40' E 037°48'0 0.0
2017-Oct-12 01:29N 44°40' E 037°48'0 0.0
2017-Oct-12 00:59N 44°40' E 037°48'0 0.0
2017-Oct-12 00:29N 44°40' E 037°48'0 0.0
2017-Oct-11 23:59N 44°40' E 037°48'0 0.0
2017-Oct-11 23:26N 44°40' E 037°48'0 0.0
2017-Oct-11 22:59N 44°40' E 037°48'0 0.0
2017-Oct-11 22:29N 44°40' E 037°48'0 0.0
2017-Oct-11 21:59N 44°40' E 037°48'0 0.0
2017-Oct-11 21:29N 44°40' E 037°48'0 0.0
2017-Oct-11 20:59N 44°40' E 037°48'0 0.0
2017-Oct-11 20:26N 44°40' E 037°48'0 0.0
2017-Oct-11 19:59N 44°40' E 037°48'0 0.0
2017-Oct-11 19:29N 44°40' E 037°48'0 0.0
2017-Oct-11 18:59N 44°40' E 037°48'0 0.0
2017-Oct-11 18:29N 44°40' E 037°48'1 1.7
2017-Oct-11 17:59N 44°41' E 037°49'2 4.1
2017-Oct-11 17:29N 44°43' E 037°50'2 3.7
2017-Oct-11 16:59N 44°41' E 037°50'2 0.1
2017-Oct-10 23:59N 44°40' E 037°48'0 0.0
2017-Oct-10 23:29N 44°40' E 037°48'0 0.0
2017-Oct-10 22:59N 44°40' E 037°48'0 0.0
2017-Oct-10 22:29N 44°40' E 037°48'0 0.0
2017-Oct-10 21:56N 44°40' E 037°48'0 0.0
2017-Oct-10 21:29N 44°40' E 037°48'0 0.0
2017-Oct-10 20:59N 44°40' E 037°48'0 0.0
2017-Oct-10 20:29N 44°40' E 037°48'0 0.0
2017-Oct-10 19:59N 44°40' E 037°48'0 0.0
2017-Oct-10 19:29N 44°40' E 037°48'0 0.0
2017-Oct-10 18:17N 44°40' E 037°48'0 0.0
2017-Oct-10 17:59N 44°40' E 037°48'0 0.0
2017-Oct-10 17:29N 44°40' E 037°48'0 0.0
2017-Oct-10 16:59N 44°40' E 037°48'0 0.0
2017-Oct-10 16:29N 44°40' E 037°48'0 0.0
2017-Oct-10 15:59N 44°40' E 037°48'0 0.0
2017-Oct-10 15:29N 44°40' E 037°48'0 0.0
2017-Oct-10 14:59N 44°40' E 037°48'0 0.0
2017-Oct-10 13:59N 44°40' E 037°48'0 0.0
2017-Oct-10 13:29N 44°40' E 037°48'0 0.0
2017-Oct-10 12:59N 44°40' E 037°48'0 0.0
2017-Oct-10 12:29N 44°40' E 037°48'0 0.0
2017-Oct-10 11:59N 44°40' E 037°48'0 0.0
2017-Oct-10 11:29N 44°40' E 037°48'0 0.0
2017-Oct-10 10:59N 44°40' E 037°48'0 0.0
2017-Oct-10 10:29N 44°40' E 037°48'0 0.0
2017-Oct-10 09:59N 44°40' E 037°48'0 0.0
2017-Oct-10 09:26N 44°40' E 037°48'0 0.0
2017-Oct-10 08:59N 44°40' E 037°48'0 0.0
2017-Oct-10 08:29N 44°40' E 037°48'0 0.0
2017-Oct-10 07:59N 44°40' E 037°48'0 0.0
2017-Oct-10 07:29N 44°40' E 037°48'0 0.0
2017-Oct-10 06:59N 44°40' E 037°48'0 0.0
2017-Oct-10 06:29N 44°40' E 037°48'0 0.0
2017-Oct-10 05:59N 44°40' E 037°48'0 0.0
2017-Oct-10 05:29N 44°40' E 037°48'0 0.0
2017-Oct-10 04:59N 44°40' E 037°48'0 0.0
2017-Oct-10 04:29N 44°40' E 037°48'0 0.0
2017-Oct-10 03:59N 44°40' E 037°48'0 0.0
2017-Oct-10 03:29N 44°40' E 037°48'0 0.0
2017-Oct-10 02:59N 44°40' E 037°48'0 0.0
2017-Oct-10 02:29N 44°40' E 037°48'0 0.0
2017-Oct-10 01:59N 44°40' E 037°48'0 0.0
2017-Oct-10 01:29N 44°40' E 037°48'0 0.0
2017-Oct-10 00:59N 44°40' E 037°48'0 0.0
2017-Oct-10 00:29N 44°40' E 037°48'0 0.0
2017-Oct-09 23:59N 44°40' E 037°48'0 0.0
2017-Oct-09 23:29N 44°40' E 037°48'0 0.0
2017-Oct-09 22:59N 44°40' E 037°48'0 0.0
2017-Oct-09 22:29N 44°40' E 037°48'0 0.0
2017-Oct-09 21:59N 44°40' E 037°48'0 0.0
2017-Oct-09 21:29N 44°40' E 037°48'0 0.0
2017-Oct-09 20:59N 44°40' E 037°48'0 0.0
2017-Oct-09 20:29N 44°40' E 037°48'0 0.0
2017-Oct-09 19:59N 44°40' E 037°48'0 0.0
2017-Oct-09 19:29N 44°40' E 037°48'0 0.0
2017-Oct-09 18:59N 44°40' E 037°48'0 0.0
2017-Oct-09 18:29N 44°40' E 037°48'0 0.0
2017-Oct-09 17:59N 44°40' E 037°48'0 0.0
2017-Oct-09 17:29N 44°40' E 037°48'0 0.0
2017-Oct-09 16:59N 44°40' E 037°48'0 0.0
2017-Oct-09 16:29N 44°40' E 037°48'0 0.0
2017-Oct-09 15:59N 44°40' E 037°48'0 0.0
2017-Oct-09 15:29N 44°40' E 037°48'0 0.0
2017-Oct-09 14:59N 44°40' E 037°48'0 0.0
2017-Oct-09 14:29N 44°40' E 037°48'0 0.0
2017-Oct-09 13:59N 44°40' E 037°48'1 1.8
2017-Oct-09 13:29N 44°39' E 037°49'2 4.8
2017-Oct-09 12:59N 44°42' E 037°48'0 0.0
2017-Oct-09 12:29N 44°42' E 037°48'0 0.0
2017-Oct-09 11:56N 44°42' E 037°48'0 0.0
2017-Oct-09 11:29N 44°42' E 037°48'0 0.0
2017-Oct-09 10:59N 44°42' E 037°48'0 0.5
2017-Oct-09 10:29N 44°42' E 037°48'0 0.0
2017-Oct-09 09:59N 44°42' E 037°48'0 0.0
2017-Oct-09 09:29N 44°42' E 037°48'0 0.0
2017-Oct-09 08:59N 44°42' E 037°48'2 3.4
2017-Oct-09 08:29N 44°40' E 037°48'0 0.0
2017-Oct-09 07:59N 44°40' E 037°48'0 0.0
2017-Oct-09 07:29N 44°40' E 037°48'0 0.0
2017-Oct-09 06:59N 44°40' E 037°48'0 0.0
2017-Oct-09 06:29N 44°40' E 037°48'0 0.0
2017-Oct-09 05:59N 44°40' E 037°48'0 0.0
2017-Oct-09 05:29N 44°40' E 037°48'0 0.0
2017-Oct-09 04:59N 44°40' E 037°48'0 0.0
2017-Oct-09 04:29N 44°40' E 037°48'0 0.0
2017-Oct-09 03:59N 44°40' E 037°48'0 0.0
2017-Oct-09 03:29N 44°40' E 037°48'0 0.0
2017-Oct-09 02:59N 44°40' E 037°48'0 0.0
2017-Oct-09 02:29N 44°40' E 037°48'0 0.0
2017-Oct-09 01:59N 44°40' E 037°48'0 0.0
2017-Oct-09 01:29N 44°40' E 037°48'0 0.0
2017-Oct-09 00:59N 44°40' E 037°48'0 0.0
2017-Oct-09 00:29N 44°40' E 037°48'0 0.0
2017-Oct-08 23:59N 44°40' E 037°48'0 0.0
2017-Oct-08 23:29N 44°40' E 037°48'0 0.0
2017-Oct-08 22:59N 44°40' E 037°48'0 0.0
2017-Oct-08 22:29N 44°40' E 037°48'0 0.0
2017-Oct-08 21:59N 44°40' E 037°48'0 0.0
2017-Oct-08 21:29N 44°40' E 037°48'0 0.0
2017-Oct-08 20:59N 44°40' E 037°48'0 0.0
2017-Oct-08 20:29N 44°40' E 037°48'0 0.0
2017-Oct-08 19:59N 44°40' E 037°48'0 0.0
2017-Oct-08 19:29N 44°40' E 037°48'0 0.0
2017-Oct-08 18:59N 44°40' E 037°48'0 0.0
2017-Oct-08 18:26N 44°40' E 037°48'0 0.0
2017-Oct-08 17:59N 44°40' E 037°48'0 0.0
2017-Oct-08 17:29N 44°40' E 037°48'0 0.0
2017-Oct-08 16:59N 44°40' E 037°48'0 0.0
2017-Oct-08 16:29N 44°40' E 037°48'0 0.0
2017-Oct-08 15:59N 44°40' E 037°48'0 0.0
2017-Oct-08 15:29N 44°40' E 037°48'0 0.0
2017-Oct-08 14:59N 44°40' E 037°48'0 0.0
2017-Oct-08 14:29N 44°40' E 037°48'0 0.0
2017-Oct-08 13:59N 44°40' E 037°48'0 0.0
2017-Oct-08 13:29N 44°40' E 037°48'0 0.0
2017-Oct-08 12:59N 44°40' E 037°48'0 0.0
2017-Oct-08 12:29N 44°40' E 037°48'0 0.0
2017-Oct-08 11:59N 44°40' E 037°48'0 0.0
2017-Oct-08 11:29N 44°40' E 037°48'0 0.0
2017-Oct-08 10:59N 44°40' E 037°48'0 0.0
2017-Oct-08 10:29N 44°40' E 037°48'0 0.0
2017-Oct-08 09:59N 44°40' E 037°48'0 0.0
2017-Oct-08 09:29N 44°40' E 037°48'0 0.0
2017-Oct-08 08:59N 44°40' E 037°48'0 0.0
2017-Oct-08 08:29N 44°40' E 037°48'0 0.0
2017-Oct-08 07:59N 44°40' E 037°48'0 0.0
2017-Oct-08 07:29N 44°40' E 037°48'0 0.0
2017-Oct-08 06:59N 44°40' E 037°48'0 0.0
2017-Oct-08 06:29N 44°40' E 037°48'0 0.0
2017-Oct-08 05:59N 44°40' E 037°48'0 0.0
2017-Oct-08 05:29N 44°40' E 037°48'0 0.0
2017-Oct-08 04:59N 44°40' E 037°48'0 0.0
2017-Oct-08 04:29N 44°40' E 037°48'0 0.0
2017-Oct-08 03:59N 44°40' E 037°48'0 0.0
2017-Oct-08 03:29N 44°40' E 037°48'0 0.0
2017-Oct-08 02:59N 44°40' E 037°48'0 0.0
2017-Oct-08 02:29N 44°40' E 037°48'0 0.0
2017-Oct-08 01:59N 44°40' E 037°48'0 0.0
2017-Oct-08 01:29N 44°40' E 037°48'0 0.0
2017-Oct-08 00:59N 44°40' E 037°48'0 0.0
2017-Oct-08 00:29N 44°40' E 037°48'0 0.0
2017-Oct-07 23:59N 44°40' E 037°48'0 0.0
2017-Oct-07 23:29N 44°40' E 037°48'0 0.0
2017-Oct-07 22:59N 44°40' E 037°48'  
Track history (hours):
 
Tides and Currents Weather Stations Pressure Air Temp Water Temp Dewpoint Dewpoint Depression Visibility Wind Speed Wind Dir Waves Ship Positions

Nss-1003

Last reported at 2017-Oct-17 22:29 UTC. Time now 2017-Oct-17 22:33 UTC.
Position N 44°43' E 037°50'.

Length 18 m; draft 2.7 m.

Type: Tug. MMSI: 273318750.

Date/timePositionNaut miles runAvg speedWind from/ knotsBaromVisibWave heightAir tempDewpointWater temp
2017-Oct-17 22:29N 44°43' E 037°50'0 0.0
2017-Oct-17 21:59N 44°43' E 037°50'2 4.0
2017-Oct-17 21:26N 44°40' E 037°50'1 2.8
2017-Oct-17 20:56N 44°40' E 037°48'0 0.0
2017-Oct-17 20:29N 44°40' E 037°48'0 0.0
2017-Oct-17 19:59N 44°40' E 037°48'0 0.0
2017-Oct-17 19:29N 44°40' E 037°48'0 0.0
2017-Oct-17 18:59N 44°40' E 037°48'0 0.0
2017-Oct-17 18:29N 44°40' E 037°48'0 0.0
2017-Oct-17 17:59N 44°40' E 037°48'0 0.0
2017-Oct-17 17:26N 44°40' E 037°48'0 0.0
2017-Oct-17 16:59N 44°40' E 037°48'0 0.0
2017-Oct-17 16:29N 44°40' E 037°48'0 0.0
2017-Oct-17 15:59N 44°40' E 037°48'0 0.0
2017-Oct-17 15:29N 44°40' E 037°48'0 0.0
2017-Oct-17 14:53N 44°40' E 037°48'0 0.0
2017-Oct-17 14:29N 44°40' E 037°48'0 0.0
2017-Oct-17 13:59N 44°40' E 037°48'0 0.0
2017-Oct-17 13:29N 44°40' E 037°48'0 0.0
2017-Oct-17 12:59N 44°40' E 037°48'0 0.0
2017-Oct-17 12:29N 44°40' E 037°48'0 0.0
2017-Oct-17 11:59N 44°40' E 037°48'0 0.0
2017-Oct-17 11:29N 44°40' E 037°48'0 0.0
2017-Oct-17 10:59N 44°40' E 037°48'0 0.0
2017-Oct-17 10:29N 44°40' E 037°48'0 0.0
2017-Oct-17 09:59N 44°40' E 037°48'0 0.0
2017-Oct-17 09:26N 44°40' E 037°48'0 0.0
2017-Oct-17 08:56N 44°40' E 037°48'0 0.0
2017-Oct-17 08:29N 44°40' E 037°48'0 0.0
2017-Oct-17 07:59N 44°40' E 037°48'0 0.0
2017-Oct-17 07:29N 44°40' E 037°48'0 0.0
2017-Oct-17 06:59N 44°40' E 037°48'0 0.0
2017-Oct-17 06:26N 44°40' E 037°48'0 0.0
2017-Oct-17 05:59N 44°40' E 037°48'0 0.0
2017-Oct-17 05:29N 44°40' E 037°48'0 0.0
2017-Oct-17 04:59N 44°40' E 037°48'0 0.0
2017-Oct-17 04:29N 44°40' E 037°48'0 0.0
2017-Oct-17 03:59N 44°40' E 037°48'0 0.0
2017-Oct-17 03:14N 44°40' E 037°48'0 0.0
2017-Oct-17 02:59N 44°40' E 037°48'0 0.0
2017-Oct-17 02:29N 44°40' E 037°48'0 0.0
2017-Oct-17 01:59N 44°40' E 037°48'0 0.0
2017-Oct-17 01:29N 44°40' E 037°48'0 0.0
2017-Oct-17 00:59N 44°40' E 037°48'0 0.0
2017-Oct-17 00:29N 44°40' E 037°48'0 0.0
2017-Oct-16 23:59N 44°40' E 037°48'0 0.0
2017-Oct-16 23:29N 44°40' E 037°48'0 0.0
2017-Oct-16 22:59N 44°40' E 037°48'0 0.0
2017-Oct-16 22:29N 44°40' E 037°48'0 0.0
2017-Oct-16 21:59N 44°40' E 037°48'0 0.0
2017-Oct-16 21:29N 44°40' E 037°48'0 0.0
2017-Oct-16 20:59N 44°40' E 037°48'0 0.0
2017-Oct-16 20:29N 44°40' E 037°48'0 0.0
2017-Oct-16 19:59N 44°40' E 037°48'0 0.0
2017-Oct-16 19:29N 44°40' E 037°48'0 0.0
2017-Oct-16 18:59N 44°40' E 037°48'0 0.0
2017-Oct-16 18:08N 44°40' E 037°48'0 0.0
2017-Oct-16 17:59N 44°40' E 037°48'0 0.0
2017-Oct-16 17:20N 44°40' E 037°48'0 0.0
2017-Oct-16 16:59N 44°40' E 037°48'0 0.0
2017-Oct-16 16:29N 44°40' E 037°48'0 0.0
2017-Oct-16 15:59N 44°40' E 037°48'0 0.0
2017-Oct-16 15:29N 44°40' E 037°48'0 0.0
2017-Oct-16 14:59N 44°40' E 037°48'0 0.0
2017-Oct-16 14:29N 44°40' E 037°48'0 0.0
2017-Oct-16 13:29N 44°40' E 037°48'0 0.0
2017-Oct-16 12:59N 44°40' E 037°48'0 0.0
2017-Oct-16 12:29N 44°40' E 037°48'0 0.0
2017-Oct-16 11:59N 44°40' E 037°48'0 0.0
2017-Oct-16 11:29N 44°40' E 037°48'0 0.0
2017-Oct-16 10:59N 44°40' E 037°48'0 0.0
2017-Oct-16 10:29N 44°40' E 037°48'0 0.0
2017-Oct-16 09:59N 44°40' E 037°48'0 0.0
2017-Oct-16 09:29N 44°40' E 037°48'0 0.8
2017-Oct-16 08:56N 44°40' E 037°48'3 5.5
2017-Oct-16 08:26N 44°42' E 037°50'0 0.1
2017-Oct-16 07:59N 44°42' E 037°50'0 0.2
2017-Oct-16 07:29N 44°42' E 037°50'3 5.2
2017-Oct-16 06:56N 44°40' E 037°49'1 2.5
2017-Oct-16 06:29N 44°40' E 037°48'0 0.0
2017-Oct-16 05:59N 44°40' E 037°48'0 0.0
2017-Oct-16 05:29N 44°40' E 037°48'0 0.0
2017-Oct-16 04:59N 44°40' E 037°48'0 0.0
2017-Oct-16 04:29N 44°40' E 037°48'0 0.0
2017-Oct-16 03:59N 44°40' E 037°48'0 0.0
2017-Oct-16 03:29N 44°40' E 037°48'0 0.0
2017-Oct-16 02:59N 44°40' E 037°48'0 0.0
2017-Oct-16 02:29N 44°40' E 037°48'0 0.0
2017-Oct-16 01:59N 44°40' E 037°48'0 0.0
2017-Oct-16 01:29N 44°40' E 037°48'0 0.0
2017-Oct-16 00:59N 44°40' E 037°48'0 0.0
2017-Oct-16 00:29N 44°40' E 037°48'0 0.0
2017-Oct-15 23:56N 44°40' E 037°48'0 0.0
2017-Oct-15 23:29N 44°40' E 037°48'0 0.0
2017-Oct-15 22:59N 44°40' E 037°48'0 0.0
2017-Oct-15 22:29N 44°40' E 037°48'0 0.0
2017-Oct-15 21:59N 44°40' E 037°48'0 0.0
2017-Oct-15 21:29N 44°40' E 037°48'0 0.0
2017-Oct-15 20:59N 44°40' E 037°48'0 0.0
2017-Oct-15 20:29N 44°40' E 037°48'0 0.0
2017-Oct-15 19:59N 44°40' E 037°48'0 0.0
2017-Oct-15 19:29N 44°40' E 037°48'0 0.0
2017-Oct-15 18:59N 44°40' E 037°48'0 0.0
2017-Oct-15 18:29N 44°40' E 037°48'0 0.0
2017-Oct-15 17:59N 44°40' E 037°48'0 0.0
2017-Oct-15 17:29N 44°40' E 037°48'0 0.0
2017-Oct-15 16:56N 44°40' E 037°48'0 0.0
2017-Oct-15 16:29N 44°40' E 037°48'0 0.0
2017-Oct-15 15:59N 44°40' E 037°48'0 0.0
2017-Oct-15 15:29N 44°40' E 037°48'0 0.0
2017-Oct-15 14:59N 44°40' E 037°48'0 0.0
2017-Oct-15 13:59N 44°40' E 037°48'0 0.9
2017-Oct-15 13:29N 44°40' E 037°49'3 5.9
2017-Oct-15 12:59N 44°43' E 037°50'0 0.0
2017-Oct-15 12:26N 44°43' E 037°50'1 1.5
2017-Oct-15 11:59N 44°42' E 037°50'2 4.4
2017-Oct-15 11:29N 44°40' E 037°48'0 0.0
2017-Oct-15 11:00N 44°40' E 037°48'0 0.0
2017-Oct-15 10:30N 44°40' E 037°48'0 0.0
2017-Oct-15 10:00N 44°40' E 037°48'0 0.0
2017-Oct-15 09:30N 44°40' E 037°48'0 0.0
2017-Oct-15 09:00N 44°40' E 037°48'0 0.0
2017-Oct-15 08:30N 44°40' E 037°48'0 0.0
2017-Oct-15 08:00N 44°40' E 037°48'0 0.0
2017-Oct-15 07:30N 44°40' E 037°48'0 0.0
2017-Oct-15 07:00N 44°40' E 037°48'0 0.0
2017-Oct-15 06:30N 44°40' E 037°48'0 0.0
2017-Oct-15 06:00N 44°40' E 037°48'0 0.0
2017-Oct-15 05:30N 44°40' E 037°48'0 0.0
2017-Oct-15 05:00N 44°40' E 037°48'0 0.0
2017-Oct-15 04:30N 44°40' E 037°48'0 0.0
2017-Oct-15 04:00N 44°40' E 037°48'0 0.0
2017-Oct-15 03:30N 44°40' E 037°48'0 0.0
2017-Oct-15 03:00N 44°40' E 037°48'0 0.0
2017-Oct-15 02:30N 44°40' E 037°48'0 0.0
2017-Oct-15 02:00N 44°40' E 037°48'0 0.0
2017-Oct-15 01:30N 44°40' E 037°48'0 0.0
2017-Oct-15 01:00N 44°40' E 037°48'0 0.0
2017-Oct-15 00:30N 44°40' E 037°48'0 0.0
2017-Oct-15 00:00N 44°40' E 037°48'0 0.0
2017-Oct-14 23:30N 44°40' E 037°48'0 0.0
2017-Oct-14 23:00N 44°40' E 037°48'0 0.0
2017-Oct-14 22:27N 44°40' E 037°48'0 0.0
2017-Oct-14 22:00N 44°40' E 037°48'0 0.0
2017-Oct-14 21:30N 44°40' E 037°48'0 0.0
2017-Oct-14 21:00N 44°40' E 037°48'0 0.0
2017-Oct-14 20:30N 44°40' E 037°48'0 0.0
2017-Oct-14 20:00N 44°40' E 037°48'0 0.0
2017-Oct-14 19:30N 44°40' E 037°48'0 0.0
2017-Oct-14 19:00N 44°40' E 037°48'0 0.0
2017-Oct-14 18:30N 44°40' E 037°48'0 0.0
2017-Oct-14 18:00N 44°40' E 037°48'0 0.0
2017-Oct-14 17:30N 44°40' E 037°48'0 0.0
2017-Oct-14 17:00N 44°40' E 037°48'0 0.0
2017-Oct-14 16:30N 44°40' E 037°48'0 0.0
2017-Oct-14 16:00N 44°40' E 037°48'0 0.0
2017-Oct-14 15:30N 44°40' E 037°48'0 0.0
2017-Oct-14 15:00N 44°40' E 037°48'0 0.0
2017-Oct-14 14:30N 44°40' E 037°48'0 0.0
2017-Oct-14 14:00N 44°40' E 037°48'0 0.0
2017-Oct-14 13:30N 44°40' E 037°48'0 0.0
2017-Oct-14 13:00N 44°40' E 037°48'0 0.0
2017-Oct-14 12:30N 44°40' E 037°48'0 0.0
2017-Oct-14 12:00N 44°40' E 037°48'0 0.0
2017-Oct-14 11:30N 44°40' E 037°48'0 0.0
2017-Oct-14 11:00N 44°40' E 037°48'0 0.0
2017-Oct-14 10:30N 44°40' E 037°48'0 0.0
2017-Oct-14 10:00N 44°40' E 037°48'0 0.0
2017-Oct-14 09:27N 44°40' E 037°48'0 0.0
2017-Oct-14 09:00N 44°40' E 037°48'0 0.0
2017-Oct-14 08:30N 44°40' E 037°48'0 0.0
2017-Oct-14 07:59N 44°40' E 037°48'0 0.0
2017-Oct-14 07:26N 44°40' E 037°48'0 0.0
2017-Oct-14 06:59N 44°40' E 037°48'0 0.0
2017-Oct-14 06:29N 44°40' E 037°48'0 0.0
2017-Oct-14 05:59N 44°40' E 037°48'0 0.0
2017-Oct-14 05:29N 44°40' E 037°48'0 0.0
2017-Oct-14 04:59N 44°40' E 037°48'0 0.0
2017-Oct-14 04:26N 44°40' E 037°48'0 0.0
2017-Oct-14 03:59N 44°40' E 037°48'0 0.0
2017-Oct-14 03:29N 44°40' E 037°48'0 0.0
2017-Oct-14 02:59N 44°40' E 037°48'0 0.0
2017-Oct-14 02:29N 44°40' E 037°48'0 0.0
2017-Oct-14 01:59N 44°40' E 037°48'0 0.0
2017-Oct-14 01:29N 44°40' E 037°48'0 0.0
2017-Oct-14 00:59N 44°40' E 037°48'0 0.0
2017-Oct-14 00:29N 44°40' E 037°48'0 0.0
2017-Oct-13 23:59N 44°40' E 037°48'0 0.0
2017-Oct-13 23:29N 44°40' E 037°48'0 0.0
2017-Oct-13 22:53N 44°40' E 037°48'0 0.0
2017-Oct-13 22:26N 44°40' E 037°48'0 0.0
2017-Oct-13 21:59N 44°40' E 037°48'1 2.1
2017-Oct-13 21:29N 44°40' E 037°50'2 4.3
2017-Oct-13 20:59N 44°42' E 037°50'0 0.2
2017-Oct-13 20:26N 44°42' E 037°50'1 2.6
2017-Oct-13 19:59N 44°41' E 037°50'2 3.7
2017-Oct-13 19:29N 44°40' E 037°48'0 0.0
2017-Oct-13 18:59N 44°40' E 037°48'0 0.0
2017-Oct-13 18:29N 44°40' E 037°48'0 0.0
2017-Oct-13 17:59N 44°40' E 037°48'0 0.0
2017-Oct-13 17:29N 44°40' E 037°48'0 0.0
2017-Oct-13 16:29N 44°40' E 037°48'0 0.0
2017-Oct-13 15:59N 44°40' E 037°48'0 0.0
2017-Oct-13 15:29N 44°40' E 037°48'0 0.0
2017-Oct-13 14:59N 44°40' E 037°48'0 0.0
2017-Oct-13 14:29N 44°40' E 037°48'0 0.0
2017-Oct-13 13:59N 44°40' E 037°48'0 0.0
2017-Oct-13 13:29N 44°40' E 037°48'0 0.0
2017-Oct-13 12:59N 44°40' E 037°48'0 0.0
2017-Oct-13 12:29N 44°40' E 037°48'0 0.0
2017-Oct-13 11:59N 44°40' E 037°48'0 0.0
2017-Oct-13 11:29N 44°40' E 037°48'0 0.0
2017-Oct-13 10:59N 44°40' E 037°48'0 0.1
2017-Oct-13 10:29N 44°40' E 037°48'0 0.0
2017-Oct-13 09:59N 44°40' E 037°48'0 0.2
2017-Oct-13 09:29N 44°40' E 037°48'2 3.7
2017-Oct-13 08:59N 44°42' E 037°48'0 0.0
2017-Oct-13 08:29N 44°42' E 037°48'0 0.0
2017-Oct-13 07:59N 44°42' E 037°48'0 0.0
2017-Oct-13 07:29N 44°42' E 037°48'0 0.0
2017-Oct-13 06:59N 44°42' E 037°48'0 0.0
2017-Oct-13 06:29N 44°42' E 037°48'0 0.0
2017-Oct-13 05:59N 44°42' E 037°48'1 1.7
2017-Oct-13 05:29N 44°41' E 037°49'1 2.2
2017-Oct-13 04:59N 44°40' E 037°48'0 0.0
2017-Oct-13 04:29N 44°40' E 037°48'0 0.0
2017-Oct-13 03:59N 44°40' E 037°48'0 0.0
2017-Oct-13 03:29N 44°40' E 037°48'0 0.0
2017-Oct-13 02:56N 44°40' E 037°48'0 0.0
2017-Oct-13 02:29N 44°40' E 037°48'0 0.0
2017-Oct-13 01:59N 44°40' E 037°48'0 0.0
2017-Oct-13 01:29N 44°40' E 037°48'0 0.0
2017-Oct-13 00:59N 44°40' E 037°48'0 0.0
2017-Oct-13 00:26N 44°40' E 037°48'0 0.0
2017-Oct-12 23:59N 44°40' E 037°48'0 0.0
2017-Oct-12 23:29N 44°40' E 037°48'0 0.0
2017-Oct-12 22:59N 44°40' E 037°48'0 0.0
2017-Oct-12 22:29N 44°40' E 037°48'0 0.0
2017-Oct-12 21:59N 44°40' E 037°48'0 0.0
2017-Oct-12 21:29N 44°40' E 037°48'0 0.0
2017-Oct-12 20:56N 44°40' E 037°48'0 0.0
2017-Oct-12 20:29N 44°40' E 037°48'0 0.0
2017-Oct-12 19:59N 44°40' E 037°48'0 0.0
2017-Oct-12 19:29N 44°40' E 037°48'0 0.0
2017-Oct-12 18:59N 44°40' E 037°48'1 1.7
2017-Oct-12 18:29N 44°40' E 037°49'3 5.1
2017-Oct-12 17:59N 44°42' E 037°48'0 0.0
2017-Oct-12 17:29N 44°42' E 037°48'0 0.0
2017-Oct-12 16:59N 44°42' E 037°48'0 0.0
2017-Oct-12 16:29N 44°42' E 037°48'3 5.2
2017-Oct-12 15:59N 44°40' E 037°49'1 1.9
2017-Oct-12 15:29N 44°40' E 037°48'0 0.9
2017-Oct-12 14:59N 44°40' E 037°48'2 3.6
2017-Oct-12 14:26N 44°42' E 037°48'1 2.6
2017-Oct-12 13:56N 44°42' E 037°50'0 0.3
2017-Oct-12 13:29N 44°42' E 037°50'0 0.1
2017-Oct-12 12:59N 44°42' E 037°50'0 0.7
2017-Oct-12 12:29N 44°42' E 037°50'2 3.3
2017-Oct-12 11:53N 44°40' E 037°48'0 0.0
2017-Oct-12 11:29N 44°40' E 037°48'0 0.0
2017-Oct-12 10:59N 44°40' E 037°48'0 0.0
2017-Oct-12 10:29N 44°40' E 037°48'0 0.0
2017-Oct-12 09:59N 44°40' E 037°48'0 0.0
2017-Oct-12 09:29N 44°40' E 037°48'0 0.0
2017-Oct-12 08:59N 44°40' E 037°48'0 0.0
2017-Oct-12 08:29N 44°40' E 037°48'3 5.2
2017-Oct-12 07:56N 44°43' E 037°50'0 0.1
2017-Oct-12 07:26N 44°43' E 037°50'2 3.8
2017-Oct-12 06:59N 44°41' E 037°50'2 3.2
2017-Oct-12 06:29N 44°40' E 037°48'0 0.0
2017-Oct-12 05:59N 44°40' E 037°48'0 0.0
2017-Oct-12 05:29N 44°40' E 037°48'0 0.0
2017-Oct-12 04:59N 44°40' E 037°48'0 0.0
2017-Oct-12 04:29N 44°40' E 037°48'0 0.0
2017-Oct-12 03:59N 44°40' E 037°48'0 0.0
2017-Oct-12 03:29N 44°40' E 037°48'0 0.0
2017-Oct-12 02:56N 44°40' E 037°48'0 0.0
2017-Oct-12 02:29N 44°40' E 037°48'0 0.0
2017-Oct-12 01:59N 44°40' E 037°48'0 0.0
2017-Oct-12 01:29N 44°40' E 037°48'0 0.0
2017-Oct-12 00:59N 44°40' E 037°48'0 0.0
2017-Oct-12 00:29N 44°40' E 037°48'0 0.0
2017-Oct-11 23:59N 44°40' E 037°48'0 0.0
2017-Oct-11 23:26N 44°40' E 037°48'0 0.0
2017-Oct-11 22:59N 44°40' E 037°48'0 0.0
2017-Oct-11 22:29N 44°40' E 037°48'0 0.0
2017-Oct-11 21:59N 44°40' E 037°48'0 0.0
2017-Oct-11 21:29N 44°40' E 037°48'0 0.0
2017-Oct-11 20:59N 44°40' E 037°48'0 0.0
2017-Oct-11 20:26N 44°40' E 037°48'0 0.0
2017-Oct-11 19:59N 44°40' E 037°48'0 0.0
2017-Oct-11 19:29N 44°40' E 037°48'0 0.0
2017-Oct-11 18:59N 44°40' E 037°48'0 0.0
2017-Oct-11 18:29N 44°40' E 037°48'1 1.7
2017-Oct-11 17:59N 44°41' E 037°49'2 4.1
2017-Oct-11 17:29N 44°43' E 037°50'2 3.7
2017-Oct-11 16:59N 44°41' E 037°50'2 0.1
2017-Oct-10 23:59N 44°40' E 037°48'0 0.0
2017-Oct-10 23:29N 44°40' E 037°48'0 0.0
2017-Oct-10 22:59N 44°40' E 037°48'0 0.0
2017-Oct-10 22:29N 44°40' E 037°48'0 0.0
2017-Oct-10 21:56N 44°40' E 037°48'0 0.0
2017-Oct-10 21:29N 44°40' E 037°48'0 0.0
2017-Oct-10 20:59N 44°40' E 037°48'0 0.0
2017-Oct-10 20:29N 44°40' E 037°48'0 0.0
2017-Oct-10 19:59N 44°40' E 037°48'0 0.0
2017-Oct-10 19:29N 44°40' E 037°48'0 0.0
2017-Oct-10 18:17N 44°40' E 037°48'0 0.0
2017-Oct-10 17:59N 44°40' E 037°48'0 0.0
2017-Oct-10 17:29N 44°40' E 037°48'0 0.0
2017-Oct-10 16:59N 44°40' E 037°48'0 0.0
2017-Oct-10 16:29N 44°40' E 037°48'0 0.0
2017-Oct-10 15:59N 44°40' E 037°48'0 0.0
2017-Oct-10 15:29N 44°40' E 037°48'0 0.0
2017-Oct-10 14:59N 44°40' E 037°48'0 0.0
2017-Oct-10 13:59N 44°40' E 037°48'0 0.0
2017-Oct-10 13:29N 44°40' E 037°48'0 0.0
2017-Oct-10 12:59N 44°40' E 037°48'0 0.0
2017-Oct-10 12:29N 44°40' E 037°48'0 0.0
2017-Oct-10 11:59N 44°40' E 037°48'0 0.0
2017-Oct-10 11:29N 44°40' E 037°48'0 0.0
2017-Oct-10 10:59N 44°40' E 037°48'0 0.0
2017-Oct-10 10:29N 44°40' E 037°48'0 0.0
2017-Oct-10 09:59N 44°40' E 037°48'0 0.0
2017-Oct-10 09:26N 44°40' E 037°48'0 0.0
2017-Oct-10 08:59N 44°40' E 037°48'0 0.0
2017-Oct-10 08:29N 44°40' E 037°48'0 0.0
2017-Oct-10 07:59N 44°40' E 037°48'0 0.0
2017-Oct-10 07:29N 44°40' E 037°48'0 0.0
2017-Oct-10 06:59N 44°40' E 037°48'0 0.0
2017-Oct-10 06:29N 44°40' E 037°48'0 0.0
2017-Oct-10 05:59N 44°40' E 037°48'0 0.0
2017-Oct-10 05:29N 44°40' E 037°48'0 0.0
2017-Oct-10 04:59N 44°40' E 037°48'0 0.0
2017-Oct-10 04:29N 44°40' E 037°48'0 0.0
2017-Oct-10 03:59N 44°40' E 037°48'0 0.0
2017-Oct-10 03:29N 44°40' E 037°48'0 0.0
2017-Oct-10 02:59N 44°40' E 037°48'0 0.0
2017-Oct-10 02:29N 44°40' E 037°48'0 0.0
2017-Oct-10 01:59N 44°40' E 037°48'0 0.0
2017-Oct-10 01:29N 44°40' E 037°48'0 0.0
2017-Oct-10 00:59N 44°40' E 037°48'0 0.0
2017-Oct-10 00:29N 44°40' E 037°48'0 0.0
2017-Oct-09 23:59N 44°40' E 037°48'0 0.0
2017-Oct-09 23:29N 44°40' E 037°48'0 0.0
2017-Oct-09 22:59N 44°40' E 037°48'0 0.0
2017-Oct-09 22:29N 44°40' E 037°48'0 0.0
2017-Oct-09 21:59N 44°40' E 037°48'0 0.0
2017-Oct-09 21:29N 44°40' E 037°48'0 0.0
2017-Oct-09 20:59N 44°40' E 037°48'0 0.0
2017-Oct-09 20:29N 44°40' E 037°48'0 0.0
2017-Oct-09 19:59N 44°40' E 037°48'0 0.0
2017-Oct-09 19:29N 44°40' E 037°48'0 0.0
2017-Oct-09 18:59N 44°40' E 037°48'0 0.0
2017-Oct-09 18:29N 44°40' E 037°48'0 0.0
2017-Oct-09 17:59N 44°40' E 037°48'0 0.0
2017-Oct-09 17:29N 44°40' E 037°48'0 0.0
2017-Oct-09 16:59N 44°40' E 037°48'0 0.0
2017-Oct-09 16:29N 44°40' E 037°48'0 0.0
2017-Oct-09 15:59N 44°40' E 037°48'0 0.0
2017-Oct-09 15:29N 44°40' E 037°48'0 0.0
2017-Oct-09 14:59N 44°40' E 037°48'0 0.0
2017-Oct-09 14:29N 44°40' E 037°48'0 0.0
2017-Oct-09 13:59N 44°40' E 037°48'1 1.8
2017-Oct-09 13:29N 44°39' E 037°49'2 4.8
2017-Oct-09 12:59N 44°42' E 037°48'0 0.0
2017-Oct-09 12:29N 44°42' E 037°48'0 0.0
2017-Oct-09 11:56N 44°42' E 037°48'0 0.0
2017-Oct-09 11:29N 44°42' E 037°48'0 0.0
2017-Oct-09 10:59N 44°42' E 037°48'0 0.5
2017-Oct-09 10:29N 44°42' E 037°48'0 0.0
2017-Oct-09 09:59N 44°42' E 037°48'0 0.0
2017-Oct-09 09:29N 44°42' E 037°48'0 0.0
2017-Oct-09 08:59N 44°42' E 037°48'2 3.4
2017-Oct-09 08:29N 44°40' E 037°48'0 0.0
2017-Oct-09 07:59N 44°40' E 037°48'0 0.0
2017-Oct-09 07:29N 44°40' E 037°48'0 0.0
2017-Oct-09 06:59N 44°40' E 037°48'0 0.0
2017-Oct-09 06:29N 44°40' E 037°48'0 0.0
2017-Oct-09 05:59N 44°40' E 037°48'0 0.0
2017-Oct-09 05:29N 44°40' E 037°48'0 0.0
2017-Oct-09 04:59N 44°40' E 037°48'0 0.0
2017-Oct-09 04:29N 44°40' E 037°48'0 0.0
2017-Oct-09 03:59N 44°40' E 037°48'0 0.0
2017-Oct-09 03:29N 44°40' E 037°48'0 0.0
2017-Oct-09 02:59N 44°40' E 037°48'0 0.0
2017-Oct-09 02:29N 44°40' E 037°48'0 0.0
2017-Oct-09 01:59N 44°40' E 037°48'0 0.0
2017-Oct-09 01:29N 44°40' E 037°48'0 0.0
2017-Oct-09 00:59N 44°40' E 037°48'0 0.0
2017-Oct-09 00:29N 44°40' E 037°48'0 0.0
2017-Oct-08 23:59N 44°40' E 037°48'0 0.0
2017-Oct-08 23:29N 44°40' E 037°48'0 0.0
2017-Oct-08 22:59N 44°40' E 037°48'0 0.0
2017-Oct-08 22:29N 44°40' E 037°48'0 0.0
2017-Oct-08 21:59N 44°40' E 037°48'0 0.0
2017-Oct-08 21:29N 44°40' E 037°48'0 0.0
2017-Oct-08 20:59N 44°40' E 037°48'0 0.0
2017-Oct-08 20:29N 44°40' E 037°48'0 0.0
2017-Oct-08 19:59N 44°40' E 037°48'0 0.0
2017-Oct-08 19:29N 44°40' E 037°48'0 0.0
2017-Oct-08 18:59N 44°40' E 037°48'0 0.0
2017-Oct-08 18:26N 44°40' E 037°48'0 0.0
2017-Oct-08 17:59N 44°40' E 037°48'0 0.0
2017-Oct-08 17:29N 44°40' E 037°48'0 0.0
2017-Oct-08 16:59N 44°40' E 037°48'0 0.0
2017-Oct-08 16:29N 44°40' E 037°48'0 0.0
2017-Oct-08 15:59N 44°40' E 037°48'0 0.0
2017-Oct-08 15:29N 44°40' E 037°48'0 0.0
2017-Oct-08 14:59N 44°40' E 037°48'0 0.0
2017-Oct-08 14:29N 44°40' E 037°48'0 0.0
2017-Oct-08 13:59N 44°40' E 037°48'0 0.0
2017-Oct-08 13:29N 44°40' E 037°48'0 0.0
2017-Oct-08 12:59N 44°40' E 037°48'0 0.0
2017-Oct-08 12:29N 44°40' E 037°48'0 0.0
2017-Oct-08 11:59N 44°40' E 037°48'0 0.0
2017-Oct-08 11:29N 44°40' E 037°48'0 0.0
2017-Oct-08 10:59N 44°40' E 037°48'0 0.0
2017-Oct-08 10:29N 44°40' E 037°48'0 0.0
2017-Oct-08 09:59N 44°40' E 037°48'0 0.0
2017-Oct-08 09:29N 44°40' E 037°48'0 0.0
2017-Oct-08 08:59N 44°40' E 037°48'0 0.0
2017-Oct-08 08:29N 44°40' E 037°48'0 0.0
2017-Oct-08 07:59N 44°40' E 037°48'0 0.0
2017-Oct-08 07:29N 44°40' E 037°48'0 0.0
2017-Oct-08 06:59N 44°40' E 037°48'0 0.0
2017-Oct-08 06:29N 44°40' E 037°48'0 0.0
2017-Oct-08 05:59N 44°40' E 037°48'0 0.0
2017-Oct-08 05:29N 44°40' E 037°48'0 0.0
2017-Oct-08 04:59N 44°40' E 037°48'0 0.0
2017-Oct-08 04:29N 44°40' E 037°48'0 0.0
2017-Oct-08 03:59N 44°40' E 037°48'0 0.0
2017-Oct-08 03:29N 44°40' E 037°48'0 0.0
2017-Oct-08 02:59N 44°40' E 037°48'0 0.0
2017-Oct-08 02:29N 44°40' E 037°48'0 0.0
2017-Oct-08 01:59N 44°40' E 037°48'0 0.0
2017-Oct-08 01:29N 44°40' E 037°48'0 0.0
2017-Oct-08 00:59N 44°40' E 037°48'0 0.0
2017-Oct-08 00:29N 44°40' E 037°48'0 0.0
2017-Oct-07 23:59N 44°40' E 037°48'0 0.0
2017-Oct-07 23:29N 44°40' E 037°48'0 0.0
2017-Oct-07 22:59N 44°40' E 037°48'  

Dump ship's entire track history